createdAt,value
2023-05-14T00:00:49.137Z,78.93
2023-05-14T00:03:16.154Z,78.75
2023-05-14T00:05:43.053Z,78.58
2023-05-14T00:08:09.836Z,78.32
2023-05-14T00:10:36.629Z,78.34
2023-05-14T00:13:03.356Z,78.67
2023-05-14T00:15:31.274Z,79.11
2023-05-14T00:17:59.089Z,79.13
2023-05-14T00:20:26.141Z,78.92
2023-05-14T00:22:52.932Z,78.21
2023-05-14T00:25:19.792Z,78.17
2023-05-14T00:27:46.661Z,78.28
2023-05-14T00:30:13.488Z,78.20
2023-05-14T00:32:40.365Z,78.35
2023-05-14T00:35:07.424Z,78.42
2023-05-14T00:37:34.148Z,77.95
2023-05-14T00:40:00.929Z,77.83
2023-05-14T00:42:27.982Z,77.76
2023-05-14T00:44:54.919Z,77.52
2023-05-14T00:47:22.457Z,77.59
2023-05-14T00:49:49.380Z,77.81
2023-05-14T00:52:17.217Z,77.81
2023-05-14T00:54:47.300Z,77.92
2023-05-14T00:57:14.178Z,77.72
2023-05-14T00:59:42.694Z,77.87
2023-05-14T01:02:09.698Z,77.88
2023-05-14T01:04:37.796Z,78.00
2023-05-14T01:07:09.089Z,77.74
2023-05-14T01:09:52.513Z,77.39
2023-05-14T01:12:37.370Z,77.00
2023-05-14T01:15:15.313Z,76.72
2023-05-14T01:17:46.649Z,76.61
2023-05-14T01:20:13.600Z,76.85
2023-05-14T01:22:40.429Z,76.88
2023-05-14T01:25:07.934Z,76.72
2023-05-14T01:27:50.203Z,76.86
2023-05-14T01:30:21.751Z,77.10
2023-05-14T01:32:51.728Z,77.05
2023-05-14T01:35:20.226Z,77.04
2023-05-14T01:37:48.533Z,77.03
2023-05-14T01:40:15.829Z,77.21
2023-05-14T01:42:43.917Z,77.11
2023-05-14T01:45:10.952Z,77.27
2023-05-14T01:47:37.855Z,77.31
2023-05-14T01:50:05.081Z,77.59
2023-05-14T01:52:31.785Z,78.33
2023-05-14T01:55:00.229Z,78.82
2023-05-14T01:57:27.122Z,78.58
2023-05-14T01:59:53.972Z,78.25
2023-05-14T02:02:20.832Z,78.43
2023-05-14T02:04:47.783Z,78.48
2023-05-14T02:07:14.865Z,78.60
2023-05-14T02:09:42.642Z,78.65
2023-05-14T02:12:11.183Z,78.70
2023-05-14T02:14:38.285Z,79.03
2023-05-14T02:17:05.295Z,79.03
2023-05-14T02:19:32.090Z,79.06
2023-05-14T02:22:00.372Z,79.06
2023-05-14T02:24:27.647Z,78.90
2023-05-14T02:26:54.448Z,79.01
2023-05-14T02:29:21.222Z,79.14
2023-05-14T02:31:48.173Z,78.83
2023-05-14T02:34:16.316Z,78.79
2023-05-14T02:36:43.048Z,78.87
2023-05-14T02:39:09.830Z,78.48
2023-05-14T02:41:36.734Z,78.08
2023-05-14T02:44:03.516Z,77.75
2023-05-14T02:46:35.160Z,77.65
2023-05-14T02:49:03.205Z,77.46
2023-05-14T02:51:29.932Z,77.64
2023-05-14T02:53:56.777Z,77.94
2023-05-14T02:56:23.544Z,77.67
2023-05-14T02:58:50.320Z,77.63
2023-05-14T03:01:18.872Z,77.60
2023-05-14T03:03:46.233Z,77.19
2023-05-14T03:06:13.530Z,77.06
2023-05-14T03:08:40.348Z,77.54
2023-05-14T03:11:08.282Z,77.90
2023-05-14T03:13:35.021Z,77.70
2023-05-14T03:16:01.825Z,77.75
2023-05-14T03:18:30.642Z,77.60
2023-05-14T03:20:57.570Z,77.60
2023-05-14T03:23:24.309Z,77.93
2023-05-14T03:25:52.670Z,78.04
2023-05-14T03:28:19.378Z,77.92
2023-05-14T03:30:46.331Z,78.09
2023-05-14T03:33:13.146Z,78.16
2023-05-14T03:35:39.884Z,78.23
2023-05-14T03:38:07.523Z,78.07
2023-05-14T03:40:34.577Z,78.02
2023-05-14T03:43:01.351Z,78.24
2023-05-14T03:45:30.423Z,78.05
2023-05-14T03:47:58.773Z,78.58
2023-05-14T03:50:26.232Z,79.27
2023-05-14T03:52:53.484Z,79.74
2023-05-14T03:55:20.935Z,80.21
2023-05-14T03:57:48.589Z,80.37
2023-05-14T04:00:15.752Z,80.34
2023-05-14T04:02:43.841Z,80.31
2023-05-14T04:05:10.929Z,80.36
2023-05-14T04:07:37.727Z,80.28
2023-05-14T04:10:05.803Z,80.07
2023-05-14T04:12:34.970Z,80.13
2023-05-14T04:15:02.656Z,80.41
2023-05-14T04:17:29.503Z,80.67
2023-05-14T04:19:56.906Z,80.73
2023-05-14T04:22:24.485Z,80.95
2023-05-14T04:24:51.722Z,80.84
2023-05-14T04:27:22.224Z,80.69
2023-05-14T04:29:49.819Z,80.72
2023-05-14T04:32:17.793Z,80.64
2023-05-14T04:34:44.714Z,80.27
2023-05-14T04:37:11.557Z,80.20
2023-05-14T04:39:38.443Z,79.61
2023-05-14T04:42:06.779Z,79.03
2023-05-14T04:44:34.871Z,78.33
2023-05-14T04:47:02.380Z,77.23
2023-05-14T04:49:29.530Z,75.80
2023-05-14T04:51:56.258Z,75.08
2023-05-14T04:54:23.103Z,73.33
2023-05-14T04:56:50.385Z,71.84
2023-05-14T04:59:17.169Z,70.33
2023-05-14T05:01:44.029Z,68.12
2023-05-14T05:04:10.876Z,66.09
2023-05-14T05:06:38.068Z,64.51
2023-05-14T05:09:04.837Z,63.09
2023-05-14T05:11:31.619Z,62.00
2023-05-14T05:13:58.400Z,61.56
2023-05-14T05:16:25.561Z,60.23
2023-05-14T05:18:52.566Z,59.75
2023-05-14T05:21:19.376Z,59.24
2023-05-14T05:23:46.216Z,58.21
2023-05-14T05:26:12.979Z,57.47
2023-05-14T05:28:39.697Z,56.94
2023-05-14T05:31:06.548Z,56.36
2023-05-14T05:33:34.588Z,55.93
2023-05-14T05:36:01.306Z,55.06
2023-05-14T05:38:28.162Z,54.59
2023-05-14T05:40:54.857Z,54.45
2023-05-14T05:43:21.618Z,53.56
2023-05-14T05:45:48.383Z,53.39
2023-05-14T05:48:15.127Z,53.23
2023-05-14T05:50:42.897Z,51.61
2023-05-14T05:53:09.690Z,49.55
2023-05-14T05:55:36.612Z,48.67
2023-05-14T05:58:03.514Z,47.63
2023-05-14T06:00:31.252Z,45.57
2023-05-14T06:02:58.048Z,44.54
2023-05-14T06:05:25.029Z,43.95
2023-05-14T06:07:53.637Z,43.89
2023-05-14T06:10:20.685Z,42.64
2023-05-14T06:12:47.803Z,42.14
2023-05-14T06:15:14.573Z,40.67
2023-05-14T06:17:41.569Z,39.84
2023-05-14T06:20:09.046Z,38.99
2023-05-14T06:22:35.917Z,37.44
2023-05-14T06:25:02.662Z,38.20
2023-05-14T06:27:29.995Z,36.79
2023-05-14T06:29:58.116Z,36.34
2023-05-14T06:32:24.906Z,35.70
2023-05-14T06:34:51.652Z,33.93
2023-05-14T06:37:18.424Z,34.38
2023-05-14T06:39:57.959Z,34.47
2023-05-14T06:42:25.003Z,34.72
2023-05-14T06:44:52.098Z,34.31
2023-05-14T06:47:18.847Z,34.64
2023-05-14T06:49:45.645Z,34.74
2023-05-14T06:52:12.396Z,35.25
2023-05-14T06:54:39.554Z,33.94
2023-05-14T06:57:06.333Z,33.19
2023-05-14T06:59:33.359Z,33.24
2023-05-14T07:02:00.153Z,32.95
2023-05-14T07:04:27.071Z,32.41
2023-05-14T07:06:54.009Z,32.97
2023-05-14T07:09:20.960Z,32.88
2023-05-14T07:11:48.278Z,33.23
2023-05-14T07:14:15.092Z,33.30
2023-05-14T07:16:42.788Z,32.98
2023-05-14T07:19:09.599Z,32.60
2023-05-14T07:21:36.440Z,31.82
2023-05-14T07:24:03.293Z,32.05
2023-05-14T07:26:30.497Z,32.31
2023-05-14T07:28:57.471Z,32.18
2023-05-14T07:31:24.266Z,31.67
2023-05-14T07:33:51.110Z,32.39
2023-05-14T07:36:19.146Z,33.35
2023-05-14T07:38:45.948Z,32.98
2023-05-14T07:41:12.763Z,32.17
2023-05-14T07:43:40.579Z,33.02
2023-05-14T07:46:07.459Z,32.30
2023-05-14T07:48:35.779Z,32.64
2023-05-14T07:51:02.597Z,32.94
2023-05-14T07:53:29.695Z,31.72
2023-05-14T07:55:56.475Z,32.31
2023-05-14T07:58:23.601Z,30.48
2023-05-14T08:00:50.628Z,30.32
2023-05-14T08:03:17.533Z,30.11
2023-05-14T08:05:44.972Z,31.70
2023-05-14T08:08:12.626Z,31.58
2023-05-14T08:10:39.411Z,30.44
2023-05-14T08:13:06.205Z,29.59
2023-05-14T08:15:32.944Z,29.62
2023-05-14T08:18:03.689Z,29.57
2023-05-14T08:20:31.197Z,29.70
2023-05-14T08:22:58.167Z,28.72
2023-05-14T08:25:25.120Z,27.71
2023-05-14T08:27:53.699Z,27.30
2023-05-14T08:30:21.863Z,26.56
2023-05-14T08:32:48.861Z,27.92
2023-05-14T08:35:16.192Z,27.01
2023-05-14T08:37:43.138Z,26.59
2023-05-14T08:40:10.477Z,25.53
2023-05-14T08:42:40.868Z,26.05
2023-05-14T08:45:15.612Z,25.14
2023-05-14T08:47:45.087Z,25.80
2023-05-14T08:50:12.224Z,26.06
2023-05-14T08:52:39.765Z,24.66
2023-05-14T08:55:07.977Z,24.64
2023-05-14T08:57:35.401Z,24.17
2023-05-14T09:00:08.668Z,24.18
2023-05-14T09:02:36.745Z,24.74
2023-05-14T09:05:04.250Z,24.93
2023-05-14T09:07:31.188Z,24.60
2023-05-14T09:09:58.886Z,24.33
2023-05-14T09:12:25.652Z,23.87
2023-05-14T09:14:52.472Z,23.51
2023-05-14T09:17:19.798Z,23.38
2023-05-14T09:19:49.152Z,23.83
2023-05-14T09:22:17.646Z,25.07
2023-05-14T09:24:44.887Z,25.36
2023-05-14T09:27:20.917Z,24.71
2023-05-14T09:29:48.215Z,24.93
2023-05-14T09:32:14.944Z,25.38
2023-05-14T09:34:42.361Z,26.12
2023-05-14T09:37:09.732Z,25.88
2023-05-14T09:39:38.288Z,24.33
2023-05-14T09:42:05.728Z,26.33
2023-05-14T09:44:32.772Z,27.10
2023-05-14T09:46:59.844Z,26.91
2023-05-14T09:49:26.780Z,28.37
2023-05-14T09:51:53.669Z,28.55
2023-05-14T09:54:20.498Z,27.96
2023-05-14T09:56:47.645Z,27.69
2023-05-14T09:59:14.440Z,28.01
2023-05-14T10:01:43.696Z,27.26
2023-05-14T10:04:11.884Z,28.17
2023-05-14T10:06:40.003Z,28.54
2023-05-14T10:09:13.191Z,26.88
2023-05-14T10:11:43.888Z,26.63
2023-05-14T10:14:18.720Z,27.05
2023-05-14T10:16:49.845Z,27.34
2023-05-14T10:19:18.605Z,28.79
2023-05-14T10:21:49.932Z,27.35
2023-05-14T10:24:18.279Z,28.26
2023-05-14T10:26:45.548Z,28.09
2023-05-14T10:29:13.059Z,27.25
2023-05-14T10:31:47.954Z,28.04
2023-05-14T10:34:45.786Z,28.56
2023-05-14T10:37:14.928Z,29.36
2023-05-14T10:39:43.709Z,30.06
2023-05-14T10:42:15.561Z,30.64
2023-05-14T10:44:48.689Z,29.43
2023-05-14T10:47:18.041Z,30.92
2023-05-14T10:49:46.154Z,30.88
2023-05-14T10:52:13.061Z,30.63
2023-05-14T10:54:40.627Z,31.04
2023-05-14T10:57:12.195Z,31.79
2023-05-14T10:59:42.248Z,31.19
2023-05-14T11:02:25.148Z,31.72
2023-05-14T11:05:24.029Z,31.56
2023-05-14T11:07:52.502Z,31.85
2023-05-14T11:10:22.105Z,31.63
2023-05-14T11:12:51.052Z,31.94
2023-05-14T11:15:21.236Z,31.25
2023-05-14T11:17:49.630Z,32.11
2023-05-14T11:20:17.524Z,32.26
2023-05-14T11:22:46.141Z,31.87
2023-05-14T11:25:14.810Z,32.23
2023-05-14T11:27:43.943Z,31.99
2023-05-14T11:30:20.094Z,30.72
2023-05-14T11:32:48.237Z,30.85
2023-05-14T11:35:15.593Z,31.11
2023-05-14T11:37:43.600Z,30.48
2023-05-14T11:40:16.948Z,30.08
2023-05-14T11:42:43.762Z,29.87
2023-05-14T11:45:13.226Z,29.63
2023-05-14T11:47:41.982Z,30.53
2023-05-14T11:50:09.854Z,30.28
2023-05-14T11:52:40.484Z,30.52
2023-05-14T11:55:11.994Z,29.42
2023-05-14T11:57:39.155Z,28.98
2023-05-14T12:00:09.249Z,28.63
2023-05-14T12:02:37.717Z,28.66
2023-05-14T12:05:07.363Z,28.01
2023-05-14T12:07:34.070Z,29.00
2023-05-14T12:10:03.460Z,28.32
2023-05-14T12:12:36.126Z,29.33
2023-05-14T12:15:10.351Z,29.10
2023-05-14T12:17:38.044Z,28.57
2023-05-14T12:20:08.334Z,28.98
2023-05-14T12:22:36.998Z,27.97
2023-05-14T12:25:04.254Z,27.86
2023-05-14T12:27:31.145Z,28.17
2023-05-14T12:30:19.049Z,28.55
2023-05-14T12:32:48.993Z,28.91
2023-05-14T12:35:16.148Z,28.90
2023-05-14T12:37:43.098Z,29.34
2023-05-14T12:40:10.371Z,29.47
2023-05-14T12:42:37.389Z,27.74
2023-05-14T12:45:21.790Z,28.11
2023-05-14T12:47:48.861Z,28.84
2023-05-14T12:50:16.577Z,28.77
2023-05-14T12:52:43.328Z,29.23
2023-05-14T12:55:10.173Z,29.29
2023-05-14T12:57:39.435Z,29.10
2023-05-14T13:00:08.433Z,29.22
2023-05-14T13:02:43.870Z,27.58
2023-05-14T13:05:12.693Z,27.02
2023-05-14T13:07:39.624Z,27.81
2023-05-14T13:10:07.135Z,27.56
2023-05-14T13:12:34.237Z,28.43
2023-05-14T13:15:01.152Z,29.35
2023-05-14T13:17:28.105Z,29.20
2023-05-14T13:19:54.916Z,29.13
2023-05-14T13:22:21.636Z,28.90
2023-05-14T13:24:48.388Z,28.59
2023-05-14T13:27:15.200Z,28.24
2023-05-14T13:29:42.327Z,28.82
2023-05-14T13:32:09.072Z,29.42
2023-05-14T13:34:36.368Z,29.36
2023-05-14T13:37:04.000Z,29.42
2023-05-14T13:39:30.926Z,29.44
2023-05-14T13:41:57.742Z,29.85
2023-05-14T13:44:24.524Z,30.08
2023-05-14T13:46:51.400Z,30.48
2023-05-14T13:49:18.666Z,31.34
2023-05-14T13:51:45.443Z,31.96
2023-05-14T13:54:12.245Z,32.12
2023-05-14T13:56:38.940Z,31.86
2023-05-14T13:59:06.036Z,32.19
2023-05-14T14:01:32.921Z,32.03
2023-05-14T14:03:59.763Z,32.07
2023-05-14T14:06:27.528Z,32.12
2023-05-14T14:08:54.464Z,33.23
2023-05-14T14:11:21.966Z,32.82
2023-05-14T14:13:48.798Z,33.49
2023-05-14T14:16:16.278Z,33.69
2023-05-14T14:18:43.494Z,33.36
2023-05-14T14:21:10.840Z,33.12
2023-05-14T14:23:37.647Z,33.58
2023-05-14T14:26:04.458Z,33.80
2023-05-14T14:28:31.435Z,34.22
2023-05-14T14:30:58.629Z,34.46
2023-05-14T14:33:25.771Z,34.01
2023-05-14T14:35:52.925Z,34.42
2023-05-14T14:38:19.776Z,34.10
2023-05-14T14:40:46.948Z,33.81
2023-05-14T14:43:13.742Z,34.30
2023-05-14T14:45:40.622Z,34.07
2023-05-14T14:48:26.904Z,34.63
2023-05-14T14:50:54.945Z,34.91
2023-05-14T14:53:23.187Z,35.67
2023-05-14T14:55:50.956Z,36.32
2023-05-14T14:58:19.382Z,35.92
2023-05-14T15:00:47.161Z,36.13
2023-05-14T15:03:15.257Z,35.88
2023-05-14T15:05:42.602Z,35.99
2023-05-14T15:08:09.820Z,36.38
2023-05-14T15:10:38.345Z,36.72
2023-05-14T15:13:06.289Z,36.19
2023-05-14T15:15:34.365Z,36.60
2023-05-14T15:18:02.049Z,36.31
2023-05-14T15:20:29.791Z,36.50
2023-05-14T15:22:56.558Z,36.97
2023-05-14T15:25:24.722Z,36.83
2023-05-14T15:27:51.713Z,37.54
2023-05-14T15:30:18.936Z,37.38
2023-05-14T15:32:46.765Z,37.37
2023-05-14T15:35:13.921Z,37.51
2023-05-14T15:37:44.286Z,37.53
2023-05-14T15:40:12.085Z,37.08
2023-05-14T15:42:42.154Z,37.04
2023-05-14T15:45:10.868Z,37.32
2023-05-14T15:47:44.626Z,37.37
2023-05-14T15:50:11.749Z,37.59
2023-05-14T15:52:39.390Z,37.58
2023-05-14T15:55:06.790Z,37.43
2023-05-14T15:57:34.497Z,37.84
2023-05-14T16:00:01.563Z,37.85
2023-05-14T16:02:33.373Z,38.64
2023-05-14T16:05:00.280Z,38.70
2023-05-14T16:07:27.076Z,38.86
2023-05-14T16:09:53.939Z,39.31
2023-05-14T16:12:20.890Z,39.52
2023-05-14T16:14:47.583Z,39.84
2023-05-14T16:17:14.448Z,39.70
2023-05-14T16:19:41.518Z,39.90
2023-05-14T16:22:08.282Z,40.27
2023-05-14T16:24:35.078Z,40.06
2023-05-14T16:27:01.836Z,40.27
2023-05-14T16:29:28.594Z,40.60
2023-05-14T16:31:55.513Z,40.69
2023-05-14T16:34:22.335Z,40.63
2023-05-14T16:36:49.201Z,40.99
2023-05-14T16:39:16.577Z,41.15
2023-05-14T16:41:43.298Z,41.39
2023-05-14T16:44:10.076Z,41.27
2023-05-14T16:46:36.927Z,41.53
2023-05-14T16:49:03.765Z,41.84
2023-05-14T16:51:30.679Z,41.68
2023-05-14T16:53:57.429Z,41.93
2023-05-14T16:56:24.218Z,42.44
2023-05-14T16:58:50.920Z,42.44
2023-05-14T17:01:17.645Z,42.50
2023-05-14T17:03:45.861Z,42.76
2023-05-14T17:06:12.689Z,42.83
2023-05-14T17:08:39.408Z,43.18
2023-05-14T17:11:06.262Z,43.20
2023-05-14T17:13:33.444Z,43.73
2023-05-14T17:16:00.933Z,43.97
2023-05-14T17:18:28.344Z,44.12
2023-05-14T17:20:55.377Z,44.32
2023-05-14T17:23:22.095Z,44.44
2023-05-14T17:25:48.954Z,44.71
2023-05-14T17:28:16.448Z,44.97
2023-05-14T17:30:43.181Z,44.91
2023-05-14T17:33:09.954Z,45.35
2023-05-14T17:35:37.361Z,45.50
2023-05-14T17:38:04.171Z,45.28
2023-05-14T17:40:30.919Z,45.84
2023-05-14T17:42:57.759Z,46.39
2023-05-14T17:45:24.990Z,47.25
2023-05-14T17:47:52.444Z,48.46
2023-05-14T17:50:20.183Z,50.05
2023-05-14T17:52:47.652Z,51.84
2023-05-14T17:55:14.577Z,54.75
2023-05-14T17:57:42.280Z,54.26
2023-05-14T18:00:09.607Z,54.88
2023-05-14T18:02:37.826Z,55.92
2023-05-14T18:05:05.534Z,56.51
2023-05-14T18:07:32.345Z,58.52
2023-05-14T18:09:59.350Z,59.91
2023-05-14T18:12:26.921Z,60.39
2023-05-14T18:14:54.039Z,61.42
2023-05-14T18:17:21.059Z,63.14
2023-05-14T18:19:48.304Z,64.03
2023-05-14T18:22:16.103Z,65.30
2023-05-14T18:24:44.332Z,66.73
2023-05-14T18:27:11.336Z,67.98
2023-05-14T18:29:38.357Z,68.12
2023-05-14T18:32:05.591Z,68.61
2023-05-14T18:34:35.115Z,68.68
2023-05-14T18:37:01.853Z,69.39
2023-05-14T18:39:28.558Z,70.63
2023-05-14T18:41:56.586Z,71.78
2023-05-14T18:44:23.691Z,72.65
2023-05-14T18:46:56.568Z,73.42
2023-05-14T18:49:23.399Z,74.40
2023-05-14T18:51:50.157Z,74.89
2023-05-14T18:54:16.942Z,75.27
2023-05-14T18:56:47.482Z,75.51
2023-05-14T18:59:14.671Z,75.79
2023-05-14T19:01:41.533Z,75.95
2023-05-14T19:04:08.628Z,76.27
2023-05-14T19:06:36.225Z,76.68
2023-05-14T19:09:04.352Z,77.34
2023-05-14T19:11:46.648Z,77.84
2023-05-14T19:14:13.522Z,78.23
2023-05-14T19:16:41.022Z,78.44
2023-05-14T19:19:08.753Z,78.38
2023-05-14T19:21:35.693Z,78.29
2023-05-14T19:24:02.537Z,78.53
2023-05-14T19:26:29.419Z,78.68
2023-05-14T19:28:58.601Z,78.99
2023-05-14T19:31:26.531Z,79.16
2023-05-14T19:33:54.176Z,79.48
2023-05-14T19:36:23.552Z,79.66
2023-05-14T19:38:50.762Z,79.59
2023-05-14T19:41:17.509Z,79.70
2023-05-14T19:43:44.313Z,79.82
2023-05-14T19:46:11.156Z,79.72
2023-05-14T19:48:38.880Z,79.86
2023-05-14T19:51:05.652Z,79.82
2023-05-14T19:53:32.412Z,80.23
2023-05-14T19:56:00.135Z,80.36
2023-05-14T19:58:26.868Z,81.02
2023-05-14T20:00:56.779Z,81.36
2023-05-14T20:03:26.134Z,81.34
2023-05-14T20:05:54.096Z,81.44
2023-05-14T20:08:26.504Z,81.39
2023-05-14T20:10:53.255Z,81.58
2023-05-14T20:13:20.141Z,81.55
2023-05-14T20:15:47.188Z,81.73
2023-05-14T20:18:14.336Z,81.56
2023-05-14T20:20:42.823Z,81.29
2023-05-14T20:23:09.801Z,81.57
2023-05-14T20:25:36.582Z,81.65
2023-05-14T20:28:04.479Z,81.62
2023-05-14T20:30:31.257Z,81.72
2023-05-14T20:32:58.306Z,81.95
2023-05-14T20:35:25.266Z,81.99
2023-05-14T20:37:52.097Z,82.07
2023-05-14T20:40:19.323Z,82.13
2023-05-14T20:42:46.092Z,82.11
2023-05-14T20:45:12.982Z,82.11
2023-05-14T20:47:40.473Z,82.12
2023-05-14T20:50:07.772Z,82.15
2023-05-14T20:52:34.594Z,82.23
2023-05-14T20:55:04.585Z,82.25
2023-05-14T20:57:31.939Z,82.43
2023-05-14T20:59:58.655Z,82.21
2023-05-14T21:02:25.713Z,81.84
2023-05-14T21:04:52.848Z,81.60
2023-05-14T21:07:19.756Z,81.73
2023-05-14T21:09:51.012Z,81.68
2023-05-14T21:12:19.284Z,81.47
2023-05-14T21:14:46.356Z,81.42
2023-05-14T21:17:13.100Z,81.38
2023-05-14T21:19:39.846Z,81.17
2023-05-14T21:22:06.893Z,81.08
2023-05-14T21:24:33.614Z,81.28
2023-05-14T21:27:00.449Z,81.59
2023-05-14T21:29:27.389Z,81.53
2023-05-14T21:31:54.193Z,81.76
2023-05-14T21:34:20.995Z,81.85
2023-05-14T21:36:47.951Z,81.77
2023-05-14T21:39:14.972Z,82.01
2023-05-14T21:41:41.736Z,82.13
2023-05-14T21:44:08.529Z,82.18
2023-05-14T21:46:37.694Z,82.21
2023-05-14T21:49:04.636Z,82.25
2023-05-14T21:51:32.179Z,82.26
2023-05-14T21:53:59.279Z,82.27
2023-05-14T21:56:26.435Z,82.32
2023-05-14T21:58:55.537Z,82.22
2023-05-14T22:01:22.463Z,82.24
2023-05-14T22:03:49.262Z,82.48
2023-05-14T22:06:16.243Z,82.37
2023-05-14T22:08:43.065Z,82.03
2023-05-14T22:11:09.753Z,82.20
2023-05-14T22:13:40.853Z,82.05
2023-05-14T22:16:13.287Z,81.97
2023-05-14T22:18:40.963Z,81.89
2023-05-14T22:21:07.840Z,81.62
2023-05-14T22:23:34.667Z,81.86
2023-05-14T22:26:01.675Z,81.83
2023-05-14T22:28:28.512Z,81.82
2023-05-14T22:30:56.569Z,81.91
2023-05-14T22:33:23.440Z,81.88
2023-05-14T22:35:50.631Z,81.98
2023-05-14T22:38:17.533Z,81.92
2023-05-14T22:40:44.244Z,82.19
2023-05-14T22:43:10.946Z,81.79
2023-05-14T22:45:37.693Z,81.37
2023-05-14T22:48:04.559Z,81.29
2023-05-14T22:50:31.427Z,81.19
2023-05-14T22:52:58.186Z,81.41
2023-05-14T22:55:25.120Z,81.79
2023-05-14T22:57:52.180Z,81.72
2023-05-14T23:00:18.893Z,81.57
2023-05-14T23:02:45.838Z,81.65
2023-05-14T23:05:12.630Z,82.09
2023-05-14T23:07:39.620Z,81.97
2023-05-14T23:10:06.908Z,82.23
2023-05-14T23:12:33.723Z,82.17
2023-05-14T23:15:00.510Z,82.47
2023-05-14T23:17:27.479Z,82.19
2023-05-14T23:19:54.538Z,82.25
2023-05-14T23:22:21.297Z,81.97
2023-05-14T23:24:47.996Z,82.26
2023-05-14T23:27:14.872Z,82.26
2023-05-14T23:29:41.696Z,82.38
2023-05-14T23:32:08.634Z,82.58
2023-05-14T23:34:35.548Z,82.50
2023-05-14T23:37:02.572Z,82.49
2023-05-14T23:39:29.384Z,82.77
2023-05-14T23:41:56.093Z,82.91
2023-05-14T23:44:23.670Z,82.81
2023-05-14T23:46:50.786Z,82.95
2023-05-14T23:49:17.573Z,83.40
2023-05-14T23:51:44.391Z,83.30
2023-05-14T23:54:11.795Z,83.55
2023-05-14T23:56:38.859Z,83.44
2023-05-14T23:59:06.528Z,83.68
